• Join FlightAware (Why Join?)
  • Login
  • US Flag 
05:12AM EDT


 

Airport Tracker/Info


-or-


 

Live Flight TrackerFlight Track Log ✈ UAL780 ✈ 18-Sep-2013 ✈ KSEA - KSFO

Flight Track Log - Related Links

Times and Time Zones

All times are in EDT time to prevent confusion due to time zone crossing. See the UAL780 flight status page for this flight to view local times or setup timezone preferences in your user account.

Time Position Orientation Groundspeed Altitude Reporting Facility
EDT Latitude Longitude Course Direction KTS MPH feet Rate Location/Type
09:40PM 47.3642 -122.3103 179° South 208 239 3,600  Level Seattle Center
09:41PM 47.3019 -122.3083 179° South 241 277 6,500 3,180 Climbing Seattle Center
09:42PM 47.0232 -122.3150 166° South  Level Estimated
09:42PM 47.2242 -122.3056 179° South 276 318 9,900  Level Seattle Center
09:43PM 46.9165 -122.3158 146° Southeast  Level Estimated
09:43PM 47.1456 -122.2303 147° Southeast 315 362 12,300  Level Seattle Center
09:44PM 46.8098 -122.3166 199° South  Level Estimated
09:44PM 47.0578 -122.1547 150° Southeast 365 420 14,800  Level Seattle Center
09:45PM 46.9539 -122.1203 167° South 382 440 17,400 2,160 Climbing Seattle Center
09:46PM 46.8528 -122.1178 179° South 392 451 19,200 1,860 Climbing Seattle Center
09:47PM 46.7375 -122.1211 181° South 409 471 21,300 1,980 Climbing Seattle Center
09:48PM 46.6175 -122.1236 181° South 427 491 23,300 1,920 Climbing Seattle Center
09:49PM 46.4961 -122.1231 180° South 436 502 25,300 1,680 Climbing Seattle Center
09:50PM 46.3733 -122.1256 181° South 441 507 26,800 1,380 Climbing Seattle Center
09:51PM 46.2447 -122.1128 176° South 461 531 28,200 1,320 Climbing Seattle Center
09:52PM 46.1117 -122.0997 176° South 480 552 29,500 1,320 Climbing Seattle Center
09:53PM 45.9517 -122.0839 176° South 482 555 31,000 1,440 Climbing Seattle Center
09:54PM 45.8161 -122.0697 176° South 489 563 32,500 1,260 Climbing Seattle Center
09:55PM 45.6817 -122.0567 176° South 485 558 33,600 1,080 Climbing Seattle Center
09:56PM 45.5442 -122.0431 176° South 492 566 34,700 1,020 Climbing Seattle Center
09:57PM 45.4064 -122.0297 176° South 496 571 35,700 900 Climbing Seattle Center
09:58PM 45.2683 -122.0156 176° South 497 572 36,600 600 Climbing Seattle Center
09:59PM 45.1281 -122.0019 176° South 502 578 37,000 180 Climbing Seattle Center
10:00PM 44.9881 -121.9875 176° South 501 577 37,000  Level Seattle Center
10:01PM 44.8406 -121.9733 176° South 497 572 37,000  Level Seattle Center
10:02PM 44.7036 -121.9606 176° South 493 567 37,000  Level Seattle Center
10:03PM 44.5642 -121.9469 176° South 496 571 37,000  Level Seattle Center
10:04PM 44.4258 -121.9328 176° South 496 571 37,000  Level Seattle Center
10:05PM 44.2872 -121.9197 176° South 497 572 37,000  Level Seattle Center
10:06PM 44.1492 -121.9067 176° South 497 572 37,000  Level Seattle Center
10:07PM 44.0108 -121.8944 176° South 496 571 37,000  Level Seattle Center
10:08PM 43.8725 -121.8808 176° South 496 571 37,000  Level Seattle Center
10:09PM 43.7311 -121.8689 177° South 499 574 37,000  Level Seattle Center
10:10PM 43.5936 -121.8561 176° South 497 572 37,000  Level Seattle Center
10:11PM 43.4556 -121.8428 176° South 497 572 37,000  Level Seattle Center
10:12PM 43.3183 -121.8311 176° South 496 571 37,000  Level Seattle Center
10:13PM 43.1819 -121.8183 176° South 492 566 37,000  Level Seattle Center
10:14PM 43.0178 -121.8025 176° South 492 566 37,000  Level Seattle Center
10:15PM 42.8819 -121.7908 176° South 490 564 37,000  Level Seattle Center
10:16PM 42.7481 -121.7786 176° South 485 558 37,000  Level Seattle Center
10:17PM 42.6136 -121.7661 176° South 485 558 37,000  Level Seattle Center
10:18PM 42.4789 -121.7550 177° South 484 557 37,000  Level Seattle Center
10:19PM 42.3444 -121.7439 177° South 484 557 37,000  Level Seattle Center
10:20PM 42.2089 -121.7328 177° South 482 555 37,000  Level Seattle Center
10:21PM 42.0753 -121.7467 184° South 471 542 37,100  Climbing Seattle Center
10:22PM 41.9431 -121.7803 191° South 471 542 37,100 -60 Level Seattle Center
10:23PM 41.8133 -121.8144 191° South 468 539 37,000 -60 Descending Seattle Center
10:24PM 41.6858 -121.8472 191° South 463 533 37,000  Level Seattle Center
10:25PM 41.5592 -121.8833 192° South 464 534 37,000  Level Seattle Center
10:26PM 41.4333 -121.9225 193° South 464 534 37,000  Level Seattle Center
10:27PM 41.3419 -121.9492 192° South 464 534 37,000  Level Oakland Center
10:28PM 41.2158 -121.9861 192° South 464 534 37,000  Level Oakland Center
10:29PM 41.0889 -122.0239 193° South 466 536 37,000  Level Oakland Center
10:30PM 40.9622 -122.0581 192° South 465 535 37,000  Level Oakland Center
10:31PM 40.8119 -122.1025 193° South 462 532 37,000  Level Oakland Center
10:32PM 40.6850 -122.1397 193° South 465 535 37,000  Level Oakland Center
10:33PM 40.5592 -122.1761 192° South 463 533 37,000  Level Oakland Center
10:34PM 40.4322 -122.2133 193° South 467 537 37,000  Level Oakland Center
10:35PM 40.3061 -122.2492 192° South 465 535 37,000  Level Oakland Center
10:36PM 40.1836 -122.2856 193° South 472 543 37,000  Level Oakland Center
10:37PM 40.0364 -122.3275 192° South 472 543 37,000  Level Oakland Center
10:38PM 39.9097 -122.3622 192° South 471 542 37,000  Level Oakland Center
10:39PM 39.7836 -122.3981 192° South 467 537 37,000  Level Oakland Center
10:40PM 39.6558 -122.4342 192° South 468 539 37,000  Level Oakland Center
10:42PM 39.5308 -122.4703 193° South 464 534 37,000 -240 Level Oakland Center
10:43PM 39.3997 -122.5058 192° South 462 532 36,600 -720 Descending Oakland Center
10:44PM 39.2803 -122.5389 192° South 461 531 35,600 -1,020 Descending Oakland Center
10:45PM 39.1503 -122.5764 193° South 460 529 34,600 -1,500 Descending Oakland Center
10:46PM 39.0239 -122.6106 192° South 463 533 32,600 -3,060 Descending Oakland Center
10:47PM 38.8731 -122.6256 184° South 476 548 28,400 -3,300 Descending Oakland Center
10:48PM 38.7431 -122.6314 182° South 471 542 25,900 -2,340 Descending Oakland Center
10:49PM 38.6186 -122.6375 182° South 454 522 23,700 -2,160 Descending Oakland Center
10:50PM 38.5011 -122.6433 182° South 433 498 21,600 -2,100 Descending Oakland Center
10:51PM 38.3883 -122.6492 182° South 413 475 19,500 -2,100 Descending Oakland Center
10:52PM 38.2778 -122.6542 182° South 397 457 17,300 -2,100 Descending Oakland Center
10:53PM 38.1736 -122.6594 182° South 384 442 15,300 -1,980 Descending Oakland Center
10:54PM 38.0722 -122.6639 182° South 373 429 13,300 -1,980 Descending Oakland Center
10:55PM 37.9583 -122.6706 183° South 353 406 11,300 -1,200 Descending Oakland Center
10:56PM 37.8797 -122.6497 168° South 311 358 10,900 -240 Descending Oakland Center
10:57PM 37.8167 -122.5842 141° Southeast 301 346 10,900  Level Oakland Center
10:58PM 37.7600 -122.5236 140° Southeast 272 313 10,900  Level Oakland Center
10:59PM 37.7228 -122.4489 122° Southeast 262 302 10,900 -360 Level Oakland Center
11:00PM 37.6908 -122.3694 117° Southeast 256 295 10,200 -840 Descending Oakland Center
11:01PM 37.6542 -122.2783 117° Southeast 245 282 9,300 -1,140 Descending Oakland Center
11:02PM 37.6289 -122.2122 116° Southeast 219 252 8,000 -1,200 Descending Oakland Center
11:03PM 37.5997 -122.1492 120° Southeast 210 242 6,900 -1,260 Descending Oakland Center
11:04PM 37.5556 -122.1153 149° Southeast 214 246 5,500 -1,440 Descending Oakland Center
11:05PM 37.5283 -122.1625 234° Southwest 209 241 4,000 -1,380 Descending Oakland Center
11:06PM 37.5536 -122.2108 303° West 175 201 2,800 -1,200 Descending Oakland Center
11:07PM 37.5753 -122.2633 298° West 171 197 1,600 -960 Descending Oakland Center
11:08PM 37.5936 -122.3106 296° West 163 188 900 -720 Descending Oakland Center
11:09PM 37.6097 -122.3500 297° West 145 167 200 -720 Descending Oakland Center